Time;durP1;ratioP1;P1;durP2;ratioP2;P2;SDS_P1;SDS_P2;PMS_P1;PMS_P2;Temp;Humidity;BMP_temperature;BMP_pressure;BME280_temperature;BME280_humidity;BME280_pressure;Samples;Min_cycle;Max_cycle;Signal;HPM_P1;HPM_P2
2022/09/29 00:01:50;;;;;;;13.02;7.97;;;6.20;99.90;;;;;;4957085;28;209516;-75
2022/09/29 00:04:16;;;;;;;13.38;8.25;;;6.20;99.90;;;;;;4999470;28;20061;-75
2022/09/29 00:06:42;;;;;;;12.32;7.78;;;6.20;99.90;;;;;;4955920;28;209466;-74
2022/09/29 00:09:09;;;;;;;14.95;9.38;;;6.20;99.90;;;;;;5004151;28;20053;-74
2022/09/29 00:11:35;;;;;;;14.23;8.80;;;6.10;99.90;;;;;;4968286;28;216079;-75
2022/09/29 00:14:01;;;;;;;13.07;9.05;;;6.20;99.90;;;;;;5007739;28;20056;-74
2022/09/29 00:16:28;;;;;;;13.38;8.82;;;6.20;99.90;;;;;;4968464;28;209142;-75
2022/09/29 00:18:54;;;;;;;13.82;9.02;;;6.10;99.90;;;;;;5010445;28;20062;-74
2022/09/29 00:21:21;;;;;;;15.10;10.15;;;6.10;99.90;;;;;;4961333;28;206555;-73
2022/09/29 00:23:48;;;;;;;13.80;9.25;;;6.10;99.90;;;;;;5006228;28;20049;-74
2022/09/29 00:26:18;;;;;;;15.10;9.35;;;6.10;99.90;;;;;;4956298;28;203298;-75
2022/09/29 00:28:55;;;;;;;16.95;10.68;;;6.10;99.90;;;;;;4989420;28;20057;-75
2022/09/29 00:31:23;;;;;;;15.77;9.85;;;6.20;99.90;;;;;;4970429;28;209355;-76
2022/09/29 00:33:49;;;;;;;16.40;10.25;;;6.10;99.90;;;;;;5008333;28;20049;-75
2022/09/29 00:36:18;;;;;;;15.32;9.07;;;6.10;99.90;;;;;;4966112;28;211781;-75
2022/09/29 00:38:46;;;;;;;14.27;8.98;;;6.10;99.90;;;;;;5001779;28;20818;-75
2022/09/29 00:41:33;;;;;;;15.18;9.45;;;6.10;99.90;;;;;;4956299;28;205842;-75
2022/09/29 00:44:04;;;;;;;13.05;8.80;;;6.10;99.90;;;;;;4986451;28;20511;-75
2022/09/29 00:46:38;;;;;;;13.57;9.23;;;6.00;99.90;;;;;;4950844;28;209725;-76
2022/09/29 00:49:13;;;;;;;16.75;10.93;;;6.00;99.90;;;;;;4998730;28;20053;-76
2022/09/29 00:51:43;;;;;;;16.33;10.68;;;6.00;99.90;;;;;;4941801;28;228197;-74
2022/09/29 00:54:10;;;;;;;17.77;11.00;;;5.90;99.90;;;;;;4999042;28;20049;-76
2022/09/29 00:56:40;;;;;;;16.98;10.75;;;5.90;99.90;;;;;;4950098;28;207683;-75
2022/09/29 00:59:10;;;;;;;17.25;11.05;;;5.90;99.90;;;;;;4998837;28;20049;-76
2022/09/29 01:01:37;;;;;;;16.52;12.02;;;5.90;99.90;;;;;;4958038;28;207493;-76
2022/09/29 01:04:07;;;;;;;21.20;12.63;;;5.90;99.90;;;;;;5004059;28;20096;-75
2022/09/29 01:06:45;;;;;;;15.32;9.70;;;5.90;99.90;;;;;;4973193;28;216072;-76
2022/09/29 01:09:17;;;;;;;14.13;9.40;;;5.90;99.90;;;;;;4989233;28;20340;-74
2022/09/29 01:11:43;;;;;;;15.40;8.90;;;5.80;99.90;;;;;;4973091;28;140505;-75
2022/09/29 01:14:10;;;;;;;14.60;9.45;;;5.80;99.90;;;;;;4995811;28;20821;-75
2022/09/29 01:16:38;;;;;;;14.60;8.48;;;5.70;99.90;;;;;;4964485;28;214021;-75
2022/09/29 01:19:16;;;;;;;15.88;8.63;;;5.70;99.90;;;;;;5010882;28;20062;-75
2022/09/29 01:21:45;;;;;;;15.20;9.43;;;5.60;99.90;;;;;;4960760;28;206612;-75
2022/09/29 01:24:23;;;;;;;13.60;9.52;;;5.60;99.90;;;;;;5011846;28;20038;-75
2022/09/29 01:27:11;;;;;;;13.27;8.77;;;5.60;99.90;;;;;;4947702;28;206987;-75
2022/09/29 01:30:00;;;;;;;15.70;9.00;;;5.60;99.90;;;;;;5021352;28;20113;-75
2022/09/29 01:33:21;;;;;;;16.20;10.95;;;5.50;99.90;;;;;;4994208;28;209758;-74
2022/09/29 01:36:02;;;;;;;15.50;8.93;;;5.50;99.90;;;;;;4918436;28;121720;-75
2022/09/29 01:38:52;;;;;;;16.83;8.83;;;5.50;99.90;;;;;;4976179;28;20047;-75
2022/09/29 01:41:39;;;;;;;18.52;12.32;;;5.50;99.90;;;;;;4912758;28;205098;-76
2022/09/29 01:44:26;;;;;;;22.73;13.70;;;5.40;99.90;;;;;;4951888;28;20058;-76
2022/09/29 01:47:02;;;;;;;16.50;10.93;;;5.40;99.90;;;;;;4915620;28;206990;-75
2022/09/29 01:49:33;;;;;;;22.02;11.45;;;5.40;99.90;;;;;;4961517;28;20061;-75
2022/09/29 01:52:08;;;;;;;21.27;13.30;;;5.40;99.90;;;;;;4922290;28;205916;-75
2022/09/29 01:54:48;;;;;;;17.70;10.93;;;5.40;99.90;;;;;;4953001;28;20423;-75
2022/09/29 01:57:22;;;;;;;20.10;13.45;;;5.40;99.90;;;;;;4926384;28;147552;-75
2022/09/29 01:59:57;;;;;;;16.38;10.18;;;5.30;99.90;;;;;;4976229;28;20066;-75
2022/09/29 02:02:33;;;;;;;15.10;10.10;;;5.30;99.90;;;;;;4914005;28;209255;-75
2022/09/29 02:05:06;;;;;;;18.25;11.25;;;5.30;99.90;;;;;;4961963;28;20055;-76
2022/09/29 02:07:40;;;;;;;17.17;11.32;;;5.30;99.90;;;;;;4946321;28;205468;-76
2022/09/29 02:10:17;;;;;;;15.88;10.80;;;5.30;99.90;;;;;;4999854;28;20053;-75
2022/09/29 02:12:44;;;;;;;15.57;10.10;;;5.20;99.90;;;;;;4958143;28;54198;-75
2022/09/29 02:15:16;;;;;;;18.48;11.82;;;5.20;99.90;;;;;;4987874;28;214826;-75
2022/09/29 02:17:47;;;;;;;17.33;11.30;;;5.20;99.90;;;;;;4993297;28;182511;-75
2022/09/29 02:20:13;;;;;;;17.48;10.02;;;5.20;99.90;;;;;;4974521;28;209976;-75
2022/09/29 02:22:41;;;;;;;17.88;10.63;;;5.20;99.90;;;;;;4950313;28;212999;-75
2022/09/29 02:25:12;;;;;;;16.42;11.35;;;5.10;99.90;;;;;;4982174;28;20054;-76
2022/09/29 02:27:38;;;;;;;16.20;10.32;;;5.10;99.90;;;;;;4961795;28;206828;-75
2022/09/29 02:30:05;;;;;;;17.42;10.45;;;5.10;99.90;;;;;;5000893;28;20061;-75
2022/09/29 02:32:34;;;;;;;15.77;11.00;;;5.10;99.90;;;;;;4955969;28;208757;-76
2022/09/29 02:35:04;;;;;;;14.10;10.02;;;5.00;99.90;;;;;;4997169;28;20065;-75
2022/09/29 02:37:55;;;;;;;14.90;9.15;;;5.00;99.90;;;;;;4971976;28;206457;-75
2022/09/29 02:40:31;;;;;;;;;;;5.00;99.90;;;;;;4983766;28;209256;-75
2022/09/29 02:43:08;;;;;;;18.85;12.90;;;4.90;99.90;;;;;;5006339;28;19917;-75
2022/09/29 02:45:35;;;;;;;16.52;11.10;;;4.90;99.90;;;;;;4965245;28;158739;-74
2022/09/29 02:48:10;;;;;;;15.30;9.65;;;4.90;99.90;;;;;;5014173;28;20046;-76
2022/09/29 02:50:45;;;;;;;15.45;10.68;;;4.90;99.90;;;;;;4964685;28;207029;-75
2022/09/29 02:53:50;;;;;;;19.95;13.07;;;4.80;99.90;;;;;;5003946;28;20053;-76
2022/09/29 02:56:53;;;;;;;22.08;12.85;;;4.80;99.90;;;;;;4942939;28;210356;-75
2022/09/29 02:59:26;;;;;;;22.42;12.70;;;4.80;99.90;;;;;;4985923;28;20054;-75
2022/09/29 03:01:55;;;;;;;16.73;11.38;;;4.80;99.90;;;;;;4955956;28;208324;-75
2022/09/29 03:04:24;;;;;;;17.23;11.77;;;4.80;99.90;;;;;;4985896;28;20064;-75
2022/09/29 03:06:51;;;;;;;28.95;11.75;;;4.80;99.90;;;;;;4919522;28;206113;-75
2022/09/29 03:09:17;;;;;;;17.23;11.35;;;4.80;99.90;;;;;;4973857;28;20046;-75
2022/09/29 03:11:43;;;;;;;16.08;10.95;;;4.70;99.90;;;;;;4947938;28;210851;-74
2022/09/29 03:14:09;;;;;;;21.40;13.35;;;4.70;99.90;;;;;;4990080;28;20045;-75
2022/09/29 03:16:36;;;;;;;44.83;13.02;;;4.70;99.90;;;;;;4960052;28;207276;-75
2022/09/29 03:19:04;;;;;;;27.45;11.98;;;4.70;99.90;;;;;;5005184;28;20099;-74
2022/09/29 03:21:31;;;;;;;23.00;10.90;;;4.70;99.90;;;;;;4955813;28;206185;-75
2022/09/29 03:23:57;;;;;;;14.73;10.00;;;4.70;99.90;;;;;;4990970;28;20049;-74
2022/09/29 03:26:24;;;;;;;48.88;12.00;;;4.70;99.90;;;;;;4948713;28;212980;-74
2022/09/29 03:28:51;;;;;;;25.45;10.07;;;4.60;99.90;;;;;;5009570;28;20046;-74
2022/09/29 03:31:17;;;;;;;59.83;12.77;;;4.60;99.90;;;;;;4962118;28;213941;-74
2022/09/29 03:33:43;;;;;;;253.45;20.98;;;4.60;99.90;;;;;;5003675;28;20114;-74
2022/09/29 03:36:10;;;;;;;43.58;12.07;;;4.70;99.90;;;;;;4973325;28;212077;-75
2022/09/29 03:38:37;;;;;;;48.55;10.90;;;4.70;99.90;;;;;;5002596;28;20543;-75
2022/09/29 03:41:03;;;;;;;47.88;11.05;;;4.70;99.90;;;;;;4970354;28;206229;-74
2022/09/29 03:43:30;;;;;;;82.20;12.88;;;4.70;99.90;;;;;;5002390;28;20050;-75
2022/09/29 03:45:56;;;;;;;152.48;17.10;;;4.70;99.90;;;;;;4964035;28;206147;-74
2022/09/29 03:48:23;;;;;;;94.40;15.00;;;4.70;99.90;;;;;;5014704;28;20053;-74
2022/09/29 03:50:50;;;;;;;90.20;13.68;;;4.70;99.90;;;;;;4971577;28;209997;-74
2022/09/29 03:53:16;;;;;;;56.92;13.20;;;4.70;99.90;;;;;;4990822;28;20133;-75
2022/09/29 03:55:49;;;;;;;38.38;13.38;;;4.70;99.90;;;;;;4972412;28;205405;-75
2022/09/29 03:58:17;;;;;;;29.63;12.80;;;4.70;99.90;;;;;;5009578;28;20069;-75
2022/09/29 04:00:43;;;;;;;25.65;13.82;;;4.70;99.90;;;;;;4972201;28;139176;-75
2022/09/29 04:03:10;;;;;;;24.38;14.57;;;4.70;99.90;;;;;;5004492;28;20083;-74
2022/09/29 04:05:38;;;;;;;46.95;17.67;;;4.70;99.90;;;;;;4975372;28;118564;-75
2022/09/29 04:08:05;;;;;;;35.63;15.80;;;4.80;99.90;;;;;;5026756;28;20050;-75
2022/09/29 04:10:37;;;;;;;27.70;17.67;;;4.80;99.90;;;;;;4956865;28;209799;-75
2022/09/29 04:13:04;;;;;;;42.15;18.40;;;4.80;99.90;;;;;;5030548;28;20053;-75
2022/09/29 04:15:31;;;;;;;52.75;21.27;;;4.80;99.90;;;;;;4953528;28;225033;-76
2022/09/29 04:17:57;;;;;;;44.17;19.55;;;4.90;99.90;;;;;;5000084;28;20062;-76
2022/09/29 04:20:24;;;;;;;38.33;16.98;;;4.90;99.90;;;;;;4964431;28;210669;-76
2022/09/29 04:22:50;;;;;;;27.58;16.02;;;4.90;99.90;;;;;;5002722;28;20422;-76
2022/09/29 04:25:16;;;;;;;61.40;17.63;;;4.90;99.90;;;;;;4963431;28;212786;-74
2022/09/29 04:27:43;;;;;;;22.58;13.57;;;4.90;99.90;;;;;;5031419;28;20053;-75
2022/09/29 04:30:10;;;;;;;30.26;14.38;;;4.90;99.90;;;;;;5004960;28;212995;-73
2022/09/29 04:32:36;;;;;;;28.10;13.73;;;4.80;99.90;;;;;;4987914;28;54822;-75
2022/09/29 04:35:03;;;;;;;71.20;16.75;;;4.80;99.90;;;;;;5010162;28;20057;-75
2022/09/29 04:37:30;;;;;;;31.23;14.88;;;4.80;99.90;;;;;;4970213;28;208648;-75
2022/09/29 04:39:56;;;;;;;26.90;13.80;;;4.80;99.90;;;;;;5007089;28;20058;-75
2022/09/29 04:42:23;;;;;;;22.13;12.48;;;4.70;99.90;;;;;;4988911;28;211420;-75
2022/09/29 04:44:49;;;;;;;16.92;10.85;;;4.70;99.90;;;;;;5009528;28;20054;-75
2022/09/29 04:47:15;;;;;;;24.55;12.82;;;4.70;99.90;;;;;;4978475;28;208601;-75
2022/09/29 04:49:42;;;;;;;16.08;12.13;;;4.70;99.90;;;;;;5005775;28;20504;-75
2022/09/29 04:52:10;;;;;;;23.90;12.65;;;4.60;99.90;;;;;;4973016;28;171257;-75
2022/09/29 04:54:37;;;;;;;46.28;13.55;;;4.60;99.90;;;;;;4989579;28;20054;-76
2022/09/29 04:57:04;;;;;;;45.60;14.10;;;4.60;99.90;;;;;;4956779;28;207471;-76
2022/09/29 04:59:30;;;;;;;21.23;10.07;;;4.60;99.90;;;;;;4982219;28;20070;-75
2022/09/29 05:01:57;;;;;;;40.67;12.30;;;4.50;99.90;;;;;;4961965;28;212747;-76
2022/09/29 05:04:23;;;;;;;35.75;12.55;;;4.50;99.90;;;;;;4992695;28;20065;-76
2022/09/29 05:06:49;;;;;;;49.35;14.07;;;4.50;99.90;;;;;;4947481;28;206394;-76
2022/09/29 05:09:15;;;;;;;36.90;13.38;;;4.40;99.90;;;;;;4987163;28;20073;-75
2022/09/29 05:11:41;;;;;;;44.50;13.90;;;4.40;99.90;;;;;;4952420;28;205779;-75
2022/09/29 05:14:09;;;;;;;35.88;13.88;;;4.40;99.90;;;;;;4996550;28;20734;-75
2022/09/29 05:16:35;;;;;;;24.77;12.50;;;4.40;99.90;;;;;;4953673;28;160536;-75
2022/09/29 05:19:01;;;;;;;28.90;15.32;;;4.40;99.90;;;;;;4982932;28;20061;-75
2022/09/29 05:21:27;;;;;;;26.55;15.40;;;4.40;99.90;;;;;;4964542;28;208628;-75
2022/09/29 05:23:54;;;;;;;24.55;14.60;;;4.40;99.90;;;;;;4989040;28;20492;-75
2022/09/29 05:26:20;;;;;;;19.13;14.23;;;4.40;99.90;;;;;;4944547;28;204495;-75
2022/09/29 05:28:47;;;;;;;15.57;12.07;;;4.40;99.90;;;;;;4983328;28;20055;-75
2022/09/29 05:31:13;;;;;;;18.83;13.18;;;4.40;99.90;;;;;;4944195;28;205887;-76
2022/09/29 05:33:40;;;;;;;17.17;13.07;;;4.30;99.90;;;;;;4985716;28;20062;-75
2022/09/29 05:36:08;;;;;;;19.80;13.10;;;4.30;99.90;;;;;;4948997;28;209899;-75
2022/09/29 05:38:35;;;;;;;17.23;12.05;;;4.30;99.90;;;;;;4993943;28;20066;-75
2022/09/29 05:41:06;;;;;;;17.08;12.73;;;4.30;99.90;;;;;;4955053;28;151093;-75
2022/09/29 05:43:32;;;;;;;18.63;12.63;;;4.30;99.90;;;;;;5000419;28;20058;-75
2022/09/29 05:46:01;;;;;;;23.27;17.27;;;4.30;99.90;;;;;;4942227;28;208111;-75
2022/09/29 05:48:29;;;;;;;22.60;15.52;;;4.20;99.90;;;;;;4979932;28;20066;-75
2022/09/29 05:50:56;;;;;;;21.90;15.65;;;4.30;99.90;;;;;;4947949;28;205775;-75
2022/09/29 05:53:22;;;;;;;20.52;15.40;;;4.30;99.90;;;;;;4992251;28;20053;-75
2022/09/29 05:55:49;;;;;;;23.25;17.30;;;4.30;99.90;;;;;;4945414;28;210319;-75
2022/09/29 05:58:15;;;;;;;26.08;17.92;;;4.30;99.90;;;;;;4980113;28;20050;-75
2022/09/29 06:00:42;;;;;;;22.15;16.15;;;4.40;99.90;;;;;;4934891;28;210667;-72
2022/09/29 06:03:08;;;;;;;21.10;15.52;;;4.40;99.90;;;;;;4994192;28;20062;-72
2022/09/29 06:05:38;;;;;;;20.95;16.17;;;4.40;99.90;;;;;;4952674;28;128125;-73
2022/09/29 06:08:04;;;;;;;18.85;14.77;;;4.50;99.90;;;;;;4975762;28;20059;-72
2022/09/29 06:10:31;;;;;;;21.60;17.20;;;4.50;99.90;;;;;;4948347;28;214241;-74
2022/09/29 06:12:58;;;;;;;25.33;18.02;;;4.50;99.90;;;;;;4985043;28;20054;-74
2022/09/29 06:15:24;;;;;;;22.50;17.23;;;4.60;99.90;;;;;;4938281;28;206882;-72
2022/09/29 06:17:57;;;;;;;24.48;19.00;;;4.60;99.90;;;;;;5001477;28;20504;-72
2022/09/29 06:20:23;;;;;;;23.77;19.17;;;4.70;99.90;;;;;;4958581;28;212187;-73
2022/09/29 06:22:53;;;;;;;24.50;19.35;;;4.80;99.90;;;;;;4967324;28;20511;-73
2022/09/29 06:25:19;;;;;;;25.77;19.90;;;4.80;99.90;;;;;;4934331;28;210985;-72
2022/09/29 06:27:45;;;;;;;29.00;21.90;;;4.90;99.90;;;;;;4971112;28;20073;-73
2022/09/29 06:30:12;;;;;;;27.15;21.10;;;5.00;99.90;;;;;;4986956;28;211870;-73
2022/09/29 06:32:38;;;;;;;27.70;22.50;;;5.00;99.90;;;;;;4997865;28;205606;-74
2022/09/29 06:37:54;;;;;;;36.67;24.20;;;5.20;99.90;;;;;;4965912;28;204957;-72
2022/09/29 06:40:20;;;;;;;29.33;23.70;;;5.30;99.90;;;;;;4961594;28;209789;-74
2022/09/29 06:42:47;;;;;;;29.50;23.35;;;5.40;99.90;;;;;;5010875;28;20561;-73
2022/09/29 06:45:13;;;;;;;34.97;25.58;;;5.50;99.90;;;;;;4997436;28;211098;-73
2022/09/29 06:47:39;;;;;;;33.80;25.30;;;5.60;99.90;;;;;;4992934;28;206811;-73
2022/09/29 06:50:06;;;;;;;31.58;25.20;;;5.60;99.90;;;;;;4999783;28;20502;-74
2022/09/29 06:52:32;;;;;;;30.58;24.35;;;5.70;99.90;;;;;;4967272;28;210275;-74
2022/09/29 06:54:58;;;;;;;27.50;22.00;;;5.70;99.90;;;;;;5002544;28;20046;-73
2022/09/29 06:57:24;;;;;;;28.75;22.40;;;5.80;99.90;;;;;;4986687;28;143490;-74
2022/09/29 06:59:51;;;;;;;26.00;20.17;;;5.80;99.90;;;;;;5005545;28;20073;-72
2022/09/29 07:02:17;;;;;;;28.67;23.52;;;5.80;99.90;;;;;;4991695;28;209547;-74
2022/09/29 07:04:43;;;;;;;28.67;23.00;;;5.90;99.90;;;;;;5013545;28;20057;-73
2022/09/29 07:07:09;;;;;;;29.17;23.58;;;6.00;99.90;;;;;;4974678;28;204908;-73
2022/09/29 07:09:35;;;;;;;30.08;22.70;;;6.00;99.90;;;;;;5007371;28;20061;-73
2022/09/29 07:12:01;;;;;;;25.85;20.63;;;6.00;99.90;;;;;;4971118;28;206104;-73
2022/09/29 07:14:28;;;;;;;28.63;22.25;;;6.10;99.90;;;;;;5013669;28;20049;-73
2022/09/29 07:16:54;;;;;;;26.85;22.00;;;6.20;99.90;;;;;;4984585;28;209949;-72
2022/09/29 07:19:20;;;;;;;28.83;21.90;;;6.20;99.90;;;;;;5012134;28;20057;-73
2022/09/29 07:21:47;;;;;;;25.77;20.80;;;6.30;99.90;;;;;;4986329;28;210996;-72
2022/09/29 07:24:13;;;;;;;25.27;20.48;;;6.40;99.90;;;;;;5016368;28;20041;-73
2022/09/29 07:26:39;;;;;;;25.75;21.83;;;6.40;99.90;;;;;;4990645;28;212674;-72
2022/09/29 07:29:06;;;;;;;27.60;21.98;;;6.50;99.90;;;;;;5019143;28;20076;-72
2022/09/29 07:31:32;;;;;;;26.33;20.90;;;6.40;99.90;;;;;;4976209;28;210807;-72
2022/09/29 07:33:58;;;;;;;28.88;22.17;;;6.50;99.90;;;;;;5012539;28;20054;-72
2022/09/29 07:36:24;;;;;;;25.08;20.40;;;6.60;99.90;;;;;;4964523;28;217884;-72
2022/09/29 07:38:51;;;;;;;25.00;19.83;;;6.70;99.90;;;;;;5004687;28;20054;-72
2022/09/29 07:41:20;;;;;;;25.70;20.10;;;6.70;99.90;;;;;;4984124;28;205406;-72
2022/09/29 07:43:46;;;;;;;28.23;21.20;;;6.80;99.90;;;;;;5013377;28;20598;-71
2022/09/29 07:46:12;;;;;;;24.00;19.95;;;6.80;99.90;;;;;;4995895;28;145239;-72
2022/09/29 07:48:38;;;;;;;23.98;19.83;;;6.90;99.90;;;;;;5015594;28;20065;-73
2022/09/29 07:51:14;;;;;;;25.63;20.15;;;7.00;99.90;;;;;;4974208;28;180075;-73
2022/09/29 07:53:40;;;;;;;25.30;19.02;;;7.00;99.90;;;;;;4996399;28;20058;-73
2022/09/29 07:56:13;;;;;;;25.55;19.33;;;7.00;99.90;;;;;;4942452;28;206518;-72
2022/09/29 07:58:40;;;;;;;24.58;19.38;;;7.10;99.90;;;;;;5005759;28;20530;-72
2022/09/29 08:01:09;;;;;;;25.63;21.20;;;7.10;99.90;;;;;;4964056;28;208840;-73
2022/09/29 08:03:40;;;;;;;24.75;19.45;;;7.10;99.90;;;;;;5003970;28;20050;-73
2022/09/29 08:06:07;;;;;;;26.23;20.35;;;7.20;99.90;;;;;;4963991;28;208730;-73
2022/09/29 08:08:38;;;;;;;27.65;21.10;;;7.20;99.90;;;;;;5006867;28;20054;-73
2022/09/29 08:11:09;;;;;;;27.52;21.60;;;7.30;99.90;;;;;;4967784;28;212120;-73
2022/09/29 08:13:36;;;;;;;27.10;21.25;;;7.40;99.90;;;;;;4993909;28;20054;-73
2022/09/29 08:16:04;;;;;;;25.75;21.23;;;7.50;99.90;;;;;;4958453;28;209602;-73
2022/09/29 08:18:32;;;;;;;28.95;21.95;;;7.50;99.90;;;;;;4998646;28;20090;-72
2022/09/29 08:20:59;;;;;;;29.63;21.67;;;7.70;99.90;;;;;;4965675;28;209017;-73
2022/09/29 08:23:25;;;;;;;33.63;20.30;;;7.70;99.90;;;;;;5011432;28;20069;-71
2022/09/29 08:26:13;;;;;;;25.08;20.00;;;7.90;99.90;;;;;;4958571;28;209039;-71
2022/09/29 08:28:39;;;;;;;24.17;19.05;;;8.00;99.90;;;;;;4992765;28;20536;-71
2022/09/29 08:31:13;;;;;;;24.08;19.13;;;8.10;99.90;;;;;;4971811;28;216468;-74
2022/09/29 08:33:39;;;;;;;24.58;18.02;;;8.20;99.90;;;;;;5019863;28;20050;-74
2022/09/29 08:36:13;;;;;;;23.92;17.90;;;8.30;99.90;;;;;;4957894;28;173677;-72
2022/09/29 08:38:42;;;;;;;22.77;16.77;;;8.40;99.90;;;;;;5012977;28;20057;-72
2022/09/29 08:41:35;;;;;;;22.50;17.38;;;8.50;99.90;;;;;;4956747;28;205509;-73
2022/09/29 08:44:04;;;;;;;23.95;16.77;;;8.70;99.90;;;;;;4994114;28;20050;-73
2022/09/29 08:46:34;;;;;;;23.25;17.33;;;8.80;99.90;;;;;;4963154;28;209646;-72
2022/09/29 08:49:05;;;;;;;21.08;16.48;;;9.10;99.90;;;;;;5005724;28;20065;-73
2022/09/29 08:51:36;;;;;;;19.85;16.08;;;9.40;99.90;;;;;;4967933;28;208947;-73
2022/09/29 08:54:06;;;;;;;;;;;9.90;99.90;;;;;;5004401;28;21298;-73
2022/09/29 08:56:33;;;;;;;15.15;11.43;;;10.60;99.90;;;;;;4974728;28;205204;-73
2022/09/29 08:58:59;;;;;;;13.70;9.63;;;10.60;99.90;;;;;;5009725;28;20603;-73
2022/09/29 09:01:46;;;;;;;12.52;9.57;;;10.50;99.90;;;;;;4966146;28;147744;-73
2022/09/29 09:04:15;;;;;;;15.13;9.60;;;10.80;99.90;;;;;;5002989;28;20073;-73
2022/09/29 09:06:59;;;;;;;12.68;8.55;;;12.00;99.90;;;;;;4972644;28;210595;-72
2022/09/29 09:09:46;;;;;;;12.10;8.57;;;12.80;99.90;;;;;;5005159;28;20076;-72
2022/09/29 09:12:21;;;;;;;11.63;7.00;;;13.70;99.90;;;;;;4974683;28;211679;-72
2022/09/29 09:15:06;;;;;;;9.80;5.93;;;14.40;99.90;;;;;;5006126;28;20058;-72
2022/09/29 09:17:58;;;;;;;11.05;5.90;;;15.00;99.90;;;;;;4962486;28;207380;-72
2022/09/29 09:20:35;;;;;;;;;;;15.60;99.90;;;;;;4960571;28;211210;-72
2022/09/29 09:23:28;;;;;;;10.65;4.97;;;16.00;99.90;;;;;;5017184;28;20302;-72
2022/09/29 09:25:58;;;;;;;9.20;4.60;;;16.70;99.90;;;;;;4979350;28;139880;-73
2022/09/29 09:28:42;;;;;;;9.27;4.25;;;17.30;99.90;;;;;;5002381;28;20083;-72
2022/09/29 09:31:31;;;;;;;7.97;3.85;;;17.80;99.90;;;;;;4970863;28;214285;-71
2022/09/29 09:34:10;;;;;;;9.63;3.58;;;18.00;99.90;;;;;;5007058;28;20056;-72
2022/09/29 09:36:58;;;;;;;7.57;3.28;;;18.30;99.90;;;;;;4973887;28;205419;-73
2022/09/29 09:39:30;;;;;;;9.75;3.65;;;18.60;99.90;;;;;;4998240;28;20057;-73
2022/09/29 09:41:59;;;;;;;7.88;3.33;;;18.80;99.90;;;;;;4976628;28;210375;-72
2022/09/29 09:44:32;;;;;;;8.32;2.90;;;19.20;99.90;;;;;;5006808;28;20054;-71
2022/09/29 09:47:03;;;;;;;8.30;2.97;;;19.60;99.90;;;;;;4963685;28;211230;-72
2022/09/29 09:49:40;;;;;;;7.57;2.97;;;19.70;99.90;;;;;;5005334;28;20427;-72
2022/09/29 09:52:26;;;;;;;7.20;2.45;;;19.90;99.90;;;;;;4994131;28;176356;-72
2022/09/29 09:55:03;;;;;;;7.00;2.70;;;19.90;99.90;;;;;;5018478;28;20073;-72
2022/09/29 09:57:37;;;;;;;8.25;3.00;;;20.00;99.90;;;;;;5000352;28;206346;-72
2022/09/29 10:00:14;;;;;;;10.57;3.30;;;19.90;99.90;;;;;;5016001;28;20046;-72
2022/09/29 10:02:47;;;;;;;8.10;3.13;;;20.00;99.90;;;;;;4964661;28;205894;-72
2022/09/29 10:05:19;;;;;;;7.63;2.75;;;20.10;99.90;;;;;;5000664;28;212758;-71
2022/09/29 10:07:47;;;;;;;7.70;2.67;;;20.40;99.90;;;;;;4996295;28;206473;-72
2022/09/29 10:10:18;;;;;;;6.75;2.10;;;20.50;99.90;;;;;;4973809;28;203491;-72
2022/09/29 10:12:45;;;;;;;6.55;1.90;;;20.70;99.90;;;;;;5018507;28;20430;-72
2022/09/29 10:15:16;;;;;;;7.32;2.30;;;20.90;99.90;;;;;;4997339;28;210854;-70
2022/09/29 10:17:47;;;;;;;10.30;2.33;;;21.20;99.90;;;;;;5018788;28;206312;-70
2022/09/29 10:20:27;;;;;;;;;;;21.10;99.90;;;;;;4976372;28;211287;-71
2022/09/29 10:22:53;;;;;;;6.22;1.80;;;21.50;98.70;;;;;;5009443;28;213048;-72
2022/09/29 10:25:19;;;;;;;6.70;2.20;;;21.60;99.40;;;;;;4958853;28;209801;-72
2022/09/29 10:27:49;;;;;;;6.60;2.10;;;21.50;99.90;;;;;;5002951;28;20418;-71
2022/09/29 10:30:37;;;;;;;7.28;2.10;;;21.70;99.90;;;;;;4946118;28;225473;-72
2022/09/29 10:33:05;;;;;;;8.27;2.22;;;21.70;99.90;;;;;;5018263;28;20047;-72
2022/09/29 10:35:40;;;;;;;6.57;2.10;;;22.00;99.90;;;;;;4969726;28;208904;-72
2022/09/29 10:38:26;;;;;;;7.15;1.73;;;22.50;99.90;;;;;;5023226;28;20069;-72
2022/09/29 10:41:01;;;;;;;6.22;1.90;;;23.00;97.40;;;;;;4968342;28;209396;-71
2022/09/29 10:43:41;;;;;;;7.00;1.83;;;23.10;98.50;;;;;;5023155;28;20050;-71
2022/09/29 10:46:38;;;;;;;7.72;2.00;;;23.30;96.70;;;;;;4969126;28;211802;-71
2022/09/29 10:49:19;;;;;;;6.07;1.70;;;23.80;97.20;;;;;;5009089;28;20055;-70
2022/09/29 10:52:25;;;;;;;6.30;1.85;;;23.50;94.60;;;;;;4965596;28;217365;-71
2022/09/29 10:55:02;;;;;;;6.45;2.17;;;22.00;93.40;;;;;;4971525;28;20061;-70
2022/09/29 10:57:32;;;;;;;6.22;1.90;;;21.60;96.50;;;;;;4942270;28;212726;-71
2022/09/29 10:59:59;;;;;;;6.27;1.77;;;22.00;96.50;;;;;;4990274;28;20045;-70
2022/09/29 11:02:38;;;;;;;7.40;2.00;;;22.40;94.40;;;;;;4934572;28;206349;-71
2022/09/29 11:05:16;;;;;;;4.95;1.45;;;22.40;95.70;;;;;;4990832;28;20109;-71
2022/09/29 11:07:45;;;;;;;3.38;1.10;;;22.10;93.20;;;;;;4934160;28;207189;-71
2022/09/29 11:10:42;;;;;;;8.05;1.70;;;22.40;95.50;;;;;;4958351;28;212856;-70
2022/09/29 11:13:23;;;;;;;5.30;1.60;;;22.60;91.60;;;;;;4853570;29;205918;-71
2022/09/29 11:15:50;;;;;;;5.47;1.40;;;22.60;94.70;;;;;;4863380;29;205766;-72
2022/09/29 11:18:26;;;;;;;5.05;1.48;;;23.00;95.00;;;;;;4903117;29;20056;-72
2022/09/29 11:21:05;;;;;;;4.60;1.40;;;23.60;93.80;;;;;;4859586;29;213564;-72
2022/09/29 11:23:50;;;;;;;5.13;1.40;;;23.50;92.50;;;;;;4911918;29;20060;-72
2022/09/29 11:26:45;;;;;;;4.40;1.08;;;23.50;90.60;;;;;;4859147;29;206362;-69
2022/09/29 11:29:20;;;;;;;4.50;1.10;;;23.50;90.80;;;;;;4898928;29;20055;-71
2022/09/29 11:32:18;;;;;;;5.10;1.10;;;23.50;91.00;;;;;;4870556;28;210439;-71
2022/09/29 11:35:21;;;;;;;4.13;1.15;;;23.70;92.30;;;;;;4908576;29;20052;-71
2022/09/29 11:38:20;;;;;;;4.55;1.20;;;24.00;90.60;;;;;;4820464;29;187909;-71
2022/09/29 11:41:12;;;;;;;5.82;1.10;;;23.70;89.70;;;;;;4868488;29;209964;-72
2022/09/29 11:43:38;;;;;;;4.78;0.80;;;22.80;87.90;;;;;;4894077;29;20048;-71
2022/09/29 11:46:44;;;;;;;3.95;1.00;;;21.80;91.20;;;;;;4859045;29;206669;-70
2022/09/29 11:49:41;;;;;;;4.10;0.90;;;20.80;90.40;;;;;;4905405;29;20059;-69
2022/09/29 11:52:18;;;;;;;2.05;0.70;;;20.00;91.10;;;;;;4885055;28;206049;-70
2022/09/29 11:55:13;;;;;;;1.92;0.60;;;20.30;92.20;;;;;;4919331;29;20056;-70
2022/09/29 11:58:04;;;;;;;2.35;0.60;;;20.90;91.40;;;;;;4845280;29;207637;-71
2022/09/29 12:01:05;;;;;;;3.40;0.75;;;20.40;88.50;;;;;;4868920;29;211593;-71
2022/09/29 12:03:38;;;;;;;5.13;0.90;;;19.50;90.20;;;;;;4851847;29;20060;-71
2022/09/29 12:06:42;;;;;;;2.80;0.70;;;20.30;91.70;;;;;;4822114;29;209134;-70
2022/09/29 12:09:53;;;;;;;3.30;0.90;;;21.00;90.90;;;;;;4851754;29;20135;-70
2022/09/29 12:12:38;;;;;;;8.45;1.10;;;22.30;91.90;;;;;;4808981;29;211899;-71
2022/09/29 12:15:26;;;;;;;4.00;0.90;;;23.20;90.50;;;;;;4862494;29;20057;-71
2022/09/29 12:17:59;;;;;;;3.67;0.70;;;23.90;89.00;;;;;;4831359;29;131359;-70
2022/09/29 12:20:29;;;;;;;3.70;1.10;;;24.50;89.80;;;;;;4831016;29;208639;-71
2022/09/29 12:23:04;;;;;;;3.67;0.90;;;25.10;88.10;;;;;;4865844;29;20056;-71
2022/09/29 12:25:36;;;;;;;3.78;1.00;;;25.60;86.30;;;;;;4837960;29;205976;-70
2022/09/29 12:28:26;;;;;;;5.55;0.90;;;25.40;82.90;;;;;;4886898;29;20537;-70
2022/09/29 12:30:59;;;;;;;5.32;1.15;;;25.30;75.20;;;;;;4834059;29;214690;-70
2022/09/29 12:33:33;;;;;;;5.82;1.00;;;24.80;79.40;;;;;;4887016;29;20616;-70
2022/09/29 12:36:45;;;;;;;3.53;0.90;;;24.90;82.30;;;;;;4862466;29;208625;-70
2022/09/29 12:39:26;;;;;;;3.42;0.90;;;25.50;80.10;;;;;;4991972;28;20058;-71
2022/09/29 12:42:22;;;;;;;2.83;0.80;;;25.70;78.30;;;;;;4959052;28;222370;-71
2022/09/29 12:44:50;;;;;;;2.58;0.80;;;25.40;74.00;;;;;;4977694;28;20518;-70
2022/09/29 12:47:38;;;;;;;2.58;0.80;;;26.00;78.40;;;;;;4912819;28;150099;-72
2022/09/29 12:50:26;;;;;;;2.33;0.63;;;26.60;72.20;;;;;;4963019;28;20058;-71
2022/09/29 12:53:07;;;;;;;2.45;0.70;;;26.70;68.70;;;;;;4907770;28;204708;-71
2022/09/29 12:56:12;;;;;;;3.55;0.70;;;26.60;71.60;;;;;;4901842;28;213904;-71
2022/09/29 12:58:47;;;;;;;3.10;0.70;;;25.30;71.10;;;;;;4941783;28;20063;-70
2022/09/29 13:01:27;;;;;;;2.78;0.70;;;25.00;69.90;;;;;;4895037;28;206432;-71
2022/09/29 13:04:10;;;;;;;4.70;0.70;;;25.60;68.70;;;;;;4939031;28;20070;-70
2022/09/29 13:07:19;;;;;;;2.25;0.68;;;25.00;65.60;;;;;;4873611;29;205155;-69
2022/09/29 13:10:10;;;;;;;3.85;0.80;;;25.40;68.20;;;;;;4946754;28;20051;-70